createdAt,value
2023-02-11T00:01:08.716Z,31.85
2023-02-11T00:03:37.134Z,28.10
2023-02-11T00:06:09.166Z,30.42
2023-02-11T00:08:37.160Z,36.05
2023-02-11T00:11:05.451Z,36.10
2023-02-11T00:13:34.777Z,45.55
2023-02-11T00:16:08.014Z,37.28
2023-02-11T00:18:36.348Z,33.10
2023-02-11T00:21:08.432Z,38.92
2023-02-11T00:23:36.351Z,36.97
2023-02-11T00:26:04.486Z,32.83
2023-02-11T00:28:32.216Z,34.00
2023-02-11T00:31:02.436Z,33.17
2023-02-11T00:33:30.198Z,29.25
2023-02-11T00:35:57.878Z,35.10
2023-02-11T00:38:25.644Z,29.27
2023-02-11T00:40:53.310Z,28.42
2023-02-11T00:43:20.940Z,26.10
2023-02-11T00:45:48.827Z,29.33
2023-02-11T00:48:17.993Z,29.75
2023-02-11T00:50:45.645Z,27.33
2023-02-11T00:53:13.385Z,34.90
2023-02-11T00:55:41.009Z,31.33
2023-02-11T00:58:08.674Z,31.88
2023-02-11T01:00:36.316Z,27.02
2023-02-11T01:03:04.005Z,29.98
2023-02-11T01:05:33.083Z,31.02
2023-02-11T01:08:00.770Z,26.38
2023-02-11T01:10:28.944Z,28.13
2023-02-11T01:12:56.579Z,25.80
2023-02-11T01:15:24.316Z,32.40
2023-02-11T01:17:52.008Z,24.33
2023-02-11T01:20:22.004Z,27.88
2023-02-11T01:22:51.188Z,39.72
2023-02-11T01:25:18.986Z,38.25
2023-02-11T01:27:46.584Z,33.15
2023-02-11T01:30:15.072Z,27.40
2023-02-11T01:32:42.755Z,30.65
2023-02-11T01:35:10.565Z,27.00
2023-02-11T01:37:38.243Z,29.00
2023-02-11T01:40:13.566Z,26.15
2023-02-11T01:42:41.297Z,24.65
2023-02-11T01:45:53.973Z,24.42
2023-02-11T01:48:24.906Z,24.55
2023-02-11T01:50:56.818Z,23.75
2023-02-11T01:53:42.525Z,26.23
2023-02-11T01:56:29.972Z,26.40
2023-02-11T01:59:03.791Z,22.00
2023-02-11T02:01:34.784Z,24.08
2023-02-11T02:04:05.984Z,23.30
2023-02-11T02:06:37.170Z,26.60
2023-02-11T02:09:09.741Z,24.88
2023-02-11T02:11:39.040Z,22.17
2023-02-11T02:14:06.917Z,21.15
2023-02-11T02:16:36.725Z,22.00
2023-02-11T02:19:46.646Z,24.67
2023-02-11T02:22:48.940Z,20.38
2023-02-11T02:25:34.539Z,22.33
2023-02-11T02:28:24.587Z,25.27
2023-02-11T02:31:16.709Z,19.88
2023-02-11T02:33:54.388Z,23.23
2023-02-11T02:36:29.375Z,21.48
2023-02-11T02:39:02.004Z,23.15
2023-02-11T02:41:31.679Z,24.17
2023-02-11T02:43:59.613Z,26.83
2023-02-11T02:46:29.609Z,24.60
2023-02-11T02:48:59.271Z,23.20
2023-02-11T02:51:54.753Z,20.83
2023-02-11T02:54:51.036Z,24.20
2023-02-11T02:57:30.120Z,35.60
2023-02-11T03:00:10.670Z,34.72
2023-02-11T03:02:47.909Z,34.08
2023-02-11T03:05:21.846Z,32.75
2023-02-11T03:07:56.784Z,31.05
2023-02-11T03:10:27.871Z,30.83
2023-02-11T03:12:57.437Z,30.23
2023-02-11T03:15:29.148Z,30.17
2023-02-11T03:18:00.732Z,30.80
2023-02-11T03:20:33.707Z,32.10
2023-02-11T03:25:38.366Z,34.00
2023-02-11T03:28:13.984Z,30.05
2023-02-11T03:30:47.974Z,32.95
2023-02-11T03:33:21.760Z,30.75
2023-02-11T03:35:56.593Z,34.65
2023-02-11T03:38:28.656Z,30.15
2023-02-11T03:40:57.434Z,30.63
2023-02-11T03:43:28.965Z,32.63
2023-02-11T03:45:58.128Z,30.40
2023-02-11T03:48:29.036Z,34.80
2023-02-11T03:51:00.681Z,35.15
2023-02-11T03:53:28.626Z,30.83
2023-02-11T03:55:59.785Z,31.75
2023-02-11T03:58:27.470Z,35.05
2023-02-11T04:00:55.128Z,34.67
2023-02-11T04:03:22.978Z,33.60
2023-02-11T04:05:50.883Z,32.90
2023-02-11T04:08:20.065Z,31.70
2023-02-11T04:10:47.720Z,31.77
2023-02-11T04:13:15.313Z,33.33
2023-02-11T04:15:42.918Z,31.05
2023-02-11T04:18:10.604Z,30.30
2023-02-11T04:20:38.278Z,31.85
2023-02-11T04:23:05.908Z,33.50
2023-02-11T04:25:34.896Z,26.70
2023-02-11T04:28:02.660Z,31.95
2023-02-11T04:30:30.304Z,27.75
2023-02-11T04:32:59.225Z,28.90
2023-02-11T04:35:27.054Z,27.90
2023-02-11T04:37:54.705Z,29.20
2023-02-11T04:40:22.368Z,29.98
2023-02-11T04:42:51.349Z,29.73
2023-02-11T04:45:19.168Z,29.05
2023-02-11T04:47:46.764Z,30.45
2023-02-11T04:50:14.523Z,28.65
2023-02-11T04:52:42.173Z,28.80
2023-02-11T04:55:09.833Z,27.42
2023-02-11T04:57:37.496Z,29.48
2023-02-11T05:00:08.314Z,28.42
2023-02-11T05:02:36.031Z,26.77
2023-02-11T05:05:04.287Z,29.63
2023-02-11T05:07:32.028Z,24.48
2023-02-11T05:09:59.765Z,29.00
2023-02-11T05:12:27.430Z,29.85
2023-02-11T05:14:55.137Z,27.55
2023-02-11T05:17:24.240Z,31.55
2023-02-11T05:19:51.855Z,31.25
2023-02-11T05:22:19.735Z,29.75
2023-02-11T05:24:47.343Z,32.08
2023-02-11T05:27:15.063Z,25.67
2023-02-11T05:29:42.782Z,26.42
2023-02-11T05:32:10.525Z,27.83
2023-02-11T05:34:39.498Z,25.65
2023-02-11T05:37:07.196Z,29.23
2023-02-11T05:39:34.864Z,25.15
2023-02-11T05:42:02.589Z,29.40
2023-02-11T05:44:30.188Z,34.25
2023-02-11T05:46:57.875Z,30.45
2023-02-11T05:49:25.512Z,25.90
2023-02-11T05:51:54.532Z,28.08
2023-02-11T05:54:22.272Z,22.85
2023-02-11T05:56:49.866Z,23.38
2023-02-11T05:59:17.974Z,24.90
2023-02-11T06:01:45.658Z,26.20
2023-02-11T06:04:13.301Z,23.13
2023-02-11T06:06:40.978Z,27.00
2023-02-11T06:09:11.196Z,22.77
2023-02-11T06:11:39.052Z,24.63
2023-02-11T06:14:06.703Z,27.90
2023-02-11T06:16:34.401Z,23.40
2023-02-11T06:19:01.988Z,23.00
2023-02-11T06:21:42.894Z,23.30
2023-02-11T06:24:12.401Z,25.52
2023-02-11T06:26:40.114Z,24.77
2023-02-11T06:29:07.762Z,22.05
2023-02-11T06:31:35.904Z,22.10
2023-02-11T06:34:03.704Z,21.52
2023-02-11T06:36:31.469Z,23.48
2023-02-11T06:38:59.140Z,20.58
2023-02-11T06:41:28.150Z,22.08
2023-02-11T06:43:55.851Z,20.73
2023-02-11T06:46:23.668Z,22.42
2023-02-11T06:48:51.301Z,21.77
2023-02-11T06:51:18.952Z,26.30
2023-02-11T06:53:48.267Z,23.02
2023-02-11T06:56:21.070Z,26.67
2023-02-11T06:58:54.659Z,25.40
2023-02-11T07:01:22.910Z,24.92
2023-02-11T07:03:51.468Z,23.38
2023-02-11T07:06:24.715Z,35.22
2023-02-11T07:08:52.446Z,24.20
2023-02-11T07:11:24.220Z,25.23
2023-02-11T07:13:54.975Z,24.80
2023-02-11T07:16:23.495Z,27.60
2023-02-11T07:18:51.529Z,21.42
2023-02-11T07:21:21.949Z,24.90
2023-02-11T07:23:49.982Z,22.80
2023-02-11T07:26:19.637Z,22.42
2023-02-11T07:28:47.629Z,25.00
2023-02-11T07:31:18.515Z,30.10
2023-02-11T07:33:46.982Z,24.08
2023-02-11T07:36:16.514Z,36.50
2023-02-11T07:38:44.827Z,25.08
2023-02-11T07:41:18.395Z,21.65
2023-02-11T07:43:46.704Z,22.42
2023-02-11T07:46:18.696Z,25.60
2023-02-11T07:48:46.500Z,23.77
2023-02-11T07:51:16.221Z,22.38
2023-02-11T07:53:44.011Z,23.25
2023-02-11T07:56:13.125Z,27.15
2023-02-11T07:58:42.108Z,25.38
2023-02-11T08:01:12.162Z,25.17
2023-02-11T08:03:43.023Z,24.15
2023-02-11T08:06:13.608Z,25.88
2023-02-11T08:08:41.721Z,25.35
2023-02-11T08:11:11.248Z,25.67
2023-02-11T08:13:39.754Z,23.63
2023-02-11T08:16:08.467Z,20.80
2023-02-11T08:18:37.046Z,26.33
2023-02-11T08:21:07.559Z,23.58
2023-02-11T08:23:36.804Z,24.60
2023-02-11T08:26:05.345Z,24.90
2023-02-11T08:28:35.899Z,27.58
2023-02-11T08:31:06.744Z,25.85
2023-02-11T08:33:34.693Z,25.17
2023-02-11T08:36:03.708Z,26.60
2023-02-11T08:38:32.657Z,26.50
2023-02-11T08:41:00.822Z,26.85
2023-02-11T08:43:28.543Z,28.10
2023-02-11T08:45:56.251Z,29.83
2023-02-11T08:48:23.980Z,34.55
2023-02-11T08:50:51.610Z,27.23
2023-02-11T08:53:19.195Z,25.00
2023-02-11T08:55:51.488Z,28.17
2023-02-11T08:58:19.983Z,23.98
2023-02-11T09:00:48.445Z,33.20
2023-02-11T09:03:16.967Z,33.67
2023-02-11T09:05:45.636Z,29.58
2023-02-11T09:08:13.564Z,29.90
2023-02-11T09:10:41.612Z,26.58
2023-02-11T09:13:10.982Z,26.48
2023-02-11T09:15:38.649Z,28.90
2023-02-11T09:18:07.381Z,29.67
2023-02-11T09:20:35.023Z,25.65
2023-02-11T09:23:02.603Z,29.17
2023-02-11T09:25:30.248Z,25.00
2023-02-11T09:27:57.882Z,28.30
2023-02-11T09:30:26.993Z,28.08
2023-02-11T09:32:54.667Z,27.10
2023-02-11T09:35:22.342Z,26.95
2023-02-11T09:37:50.015Z,22.30
2023-02-11T09:40:19.889Z,30.40
2023-02-11T09:42:52.971Z,29.63
2023-02-11T09:45:23.130Z,32.20
2023-02-11T09:47:56.628Z,30.77
2023-02-11T09:50:30.473Z,30.67
2023-02-11T09:53:03.123Z,30.58
2023-02-11T09:55:34.188Z,30.38
2023-02-11T09:58:04.326Z,31.85
2023-02-11T10:00:35.774Z,32.72
2023-02-11T10:03:36.227Z,31.70
2023-02-11T10:06:20.672Z,25.95
2023-02-11T10:09:00.147Z,29.55
2023-02-11T10:11:36.045Z,25.83
2023-02-11T10:14:17.119Z,30.95
2023-02-11T10:16:58.827Z,28.02
2023-02-11T10:19:38.748Z,26.35
2023-02-11T10:22:13.169Z,29.55
2023-02-11T10:24:43.636Z,29.70
2023-02-11T10:27:16.893Z,27.73
2023-02-11T10:29:50.715Z,30.70
2023-02-11T10:32:28.791Z,32.63
2023-02-11T10:34:59.608Z,30.35
2023-02-11T10:37:28.778Z,27.05
2023-02-11T10:39:56.482Z,27.52
2023-02-11T10:42:24.083Z,28.65
2023-02-11T10:45:00.122Z,23.75
2023-02-11T10:47:32.796Z,30.35
2023-02-11T10:50:03.598Z,26.13
2023-02-11T10:52:32.952Z,26.50
2023-02-11T10:55:03.714Z,30.90
2023-02-11T10:57:35.494Z,26.98
2023-02-11T11:00:09.021Z,31.98
2023-02-11T11:02:44.021Z,31.88
2023-02-11T11:05:18.298Z,30.95
2023-02-11T11:07:55.547Z,31.17
2023-02-11T11:10:35.753Z,32.25
2023-02-11T11:13:03.639Z,32.10
2023-02-11T11:15:33.423Z,33.00
2023-02-11T11:18:22.058Z,29.38
2023-02-11T11:20:59.464Z,30.38
2023-02-11T11:23:30.305Z,34.92
2023-02-11T11:26:07.384Z,29.90
2023-02-11T11:28:39.613Z,32.42
2023-02-11T11:31:15.462Z,28.90
2023-02-11T11:33:45.101Z,28.73
2023-02-11T11:36:15.242Z,24.83
2023-02-11T11:38:50.246Z,24.40
2023-02-11T11:41:21.291Z,23.35
2023-02-11T11:44:00.783Z,24.48
2023-02-11T11:46:31.413Z,25.80
2023-02-11T11:49:14.138Z,26.80
2023-02-11T11:51:45.545Z,28.15
2023-02-11T11:54:18.668Z,32.40
2023-02-11T11:56:53.664Z,26.88
2023-02-11T11:59:23.105Z,23.48
2023-02-11T12:02:08.110Z,23.85
2023-02-11T12:04:53.293Z,22.33
2023-02-11T12:07:31.582Z,22.02
2023-02-11T12:10:24.824Z,21.20
2023-02-11T12:15:32.144Z,22.48
2023-02-11T12:18:17.450Z,17.98
2023-02-11T12:21:02.183Z,19.73
2023-02-11T12:23:45.647Z,18.23
2023-02-11T12:26:18.346Z,18.13
2023-02-11T12:31:29.355Z,19.75
2023-02-11T12:34:19.254Z,18.23
2023-02-11T12:37:07.929Z,16.52
2023-02-11T12:39:43.636Z,14.70
2023-02-11T12:42:42.807Z,19.60
2023-02-11T12:45:22.649Z,17.40
2023-02-11T12:48:02.485Z,20.45
2023-02-11T12:50:37.603Z,21.08
2023-02-11T12:53:26.316Z,16.50
2023-02-11T12:55:58.867Z,17.30
2023-02-11T12:58:44.517Z,18.27
2023-02-11T13:01:19.568Z,17.80
2023-02-11T13:03:51.285Z,18.92
2023-02-11T13:06:23.278Z,18.33
2023-02-11T13:08:54.374Z,20.67
2023-02-11T13:11:25.488Z,16.92
2023-02-11T13:13:58.527Z,21.92
2023-02-11T13:16:35.968Z,15.80
2023-02-11T13:19:15.245Z,18.45
2023-02-11T13:21:54.094Z,19.40
2023-02-11T13:24:30.350Z,19.23
2023-02-11T13:27:05.620Z,18.27
2023-02-11T13:29:51.613Z,18.63
2023-02-11T13:32:19.365Z,18.17
2023-02-11T13:35:26.768Z,20.27
2023-02-11T13:37:54.576Z,20.08
2023-02-11T13:40:25.204Z,18.98
2023-02-11T13:42:55.215Z,22.83
2023-02-11T13:45:31.715Z,18.95
2023-02-11T13:48:00.824Z,20.35
2023-02-11T13:50:29.361Z,20.42
2023-02-11T13:53:02.332Z,18.92
2023-02-11T13:55:31.276Z,19.13
2023-02-11T13:58:19.627Z,17.13
2023-02-11T14:00:51.947Z,19.45
2023-02-11T14:03:43.933Z,21.05
2023-02-11T14:06:34.854Z,18.23
2023-02-11T14:09:26.673Z,21.85
2023-02-11T14:11:57.126Z,19.05
2023-02-11T14:14:26.804Z,21.02
2023-02-11T14:17:21.268Z,21.67
2023-02-11T14:19:50.779Z,18.65
2023-02-11T14:22:21.776Z,20.00
2023-02-11T14:24:52.855Z,19.70
2023-02-11T14:27:26.662Z,19.25
2023-02-11T14:30:07.185Z,19.70
2023-02-11T14:32:44.050Z,20.95
2023-02-11T14:35:20.373Z,18.33
2023-02-11T14:37:56.869Z,22.25
2023-02-11T14:40:30.491Z,21.52
2023-02-11T14:43:02.820Z,21.08
2023-02-11T14:48:04.420Z,21.35
2023-02-11T14:50:42.975Z,24.38
2023-02-11T14:53:16.199Z,25.77
2023-02-11T14:55:47.096Z,24.92
2023-02-11T14:58:17.602Z,26.67
2023-02-11T15:00:56.531Z,24.63
2023-02-11T15:03:37.230Z,23.83
2023-02-11T15:06:13.445Z,26.83
2023-02-11T15:08:46.045Z,22.60
2023-02-11T15:13:47.286Z,23.38
2023-02-11T15:16:18.562Z,23.25
2023-02-11T15:18:48.886Z,23.65
2023-02-11T15:21:23.760Z,23.63
2023-02-11T15:24:00.007Z,27.67
2023-02-11T15:26:28.273Z,24.25
2023-02-11T15:28:56.344Z,25.52
2023-02-11T15:31:26.795Z,23.25
2023-02-11T15:33:55.302Z,24.38
2023-02-11T15:36:36.206Z,24.05
2023-02-11T15:39:29.806Z,24.17
2023-02-11T15:41:57.628Z,27.33
2023-02-11T15:44:29.477Z,25.02
2023-02-11T15:46:57.384Z,22.27
2023-02-11T15:49:26.042Z,25.75
2023-02-11T15:51:57.445Z,25.52
2023-02-11T15:54:29.469Z,24.13
2023-02-11T15:57:02.935Z,26.27
2023-02-11T15:59:35.306Z,29.13
2023-02-11T16:02:09.114Z,31.15
2023-02-11T16:04:37.433Z,27.27
2023-02-11T16:07:06.558Z,29.13
2023-02-11T16:09:36.092Z,28.08
2023-02-11T16:12:07.587Z,27.77
2023-02-11T16:14:41.196Z,28.63
2023-02-11T16:17:12.063Z,35.28
2023-02-11T16:19:45.156Z,28.88
2023-02-11T16:22:20.517Z,27.95
2023-02-11T16:24:49.928Z,30.70
2023-02-11T16:27:23.451Z,30.77
2023-02-11T16:29:52.904Z,28.48
2023-02-11T16:32:23.299Z,26.90
2023-02-11T16:34:52.369Z,26.98
2023-02-11T16:37:22.002Z,27.70
2023-02-11T16:39:49.823Z,28.27
2023-02-11T16:42:17.784Z,29.38
2023-02-11T16:44:45.999Z,31.20
2023-02-11T16:47:21.005Z,28.20
2023-02-11T16:49:48.974Z,29.50
2023-02-11T16:52:18.952Z,29.88
2023-02-11T16:54:48.243Z,29.10
2023-02-11T16:57:18.304Z,31.27
2023-02-11T16:59:46.670Z,28.23
2023-02-11T17:02:17.644Z,26.92
2023-02-11T17:04:45.788Z,32.65
2023-02-11T17:07:13.620Z,32.65
2023-02-11T17:09:41.319Z,28.98
2023-02-11T17:12:10.371Z,28.80
2023-02-11T17:14:38.247Z,28.80
2023-02-11T17:17:06.111Z,30.20
2023-02-11T17:19:33.954Z,31.23
2023-02-11T17:22:01.699Z,33.22
2023-02-11T17:24:29.510Z,27.73
2023-02-11T17:26:57.327Z,31.48
2023-02-11T17:29:27.124Z,32.40
2023-02-11T17:31:55.049Z,29.52
2023-02-11T17:34:23.846Z,29.15
2023-02-11T17:36:52.270Z,32.00
2023-02-11T17:39:21.081Z,29.08
2023-02-11T17:41:48.941Z,29.58
2023-02-11T17:44:16.752Z,27.88
2023-02-11T17:46:45.779Z,30.90
2023-02-11T17:49:13.895Z,30.08
2023-02-11T17:51:41.726Z,28.80
2023-02-11T17:54:12.555Z,29.30
2023-02-11T17:56:40.624Z,27.50
2023-02-11T17:59:09.829Z,26.75
2023-02-11T18:01:39.042Z,27.63
2023-02-11T18:04:09.456Z,35.00
2023-02-11T18:06:37.271Z,32.42
2023-02-11T18:09:05.031Z,35.30
2023-02-11T18:11:34.328Z,33.67
2023-02-11T18:14:04.610Z,29.38
2023-02-11T18:16:34.922Z,33.95
2023-02-11T18:19:06.613Z,29.80
2023-02-11T18:21:36.425Z,30.23
2023-02-11T18:24:06.916Z,39.50
2023-02-11T18:26:35.866Z,45.90
2023-02-11T18:29:06.237Z,32.70
2023-02-11T18:31:35.241Z,30.50
2023-02-11T18:34:03.674Z,31.38
2023-02-11T18:36:31.527Z,34.88
2023-02-11T18:39:00.801Z,41.17
2023-02-11T18:41:28.665Z,40.53
2023-02-11T18:44:02.668Z,46.50
2023-02-11T18:46:31.358Z,33.55
2023-02-11T18:48:59.139Z,28.67
2023-02-11T18:51:27.148Z,26.92
2023-02-11T18:53:54.847Z,27.65
2023-02-11T18:56:25.090Z,29.00
2023-02-11T18:58:52.989Z,26.17
2023-02-11T19:01:22.795Z,29.08
2023-02-11T19:03:51.014Z,34.80
2023-02-11T19:06:21.709Z,54.97
2023-02-11T19:08:49.495Z,38.53
2023-02-11T19:11:18.762Z,37.05
2023-02-11T19:13:48.779Z,33.72
2023-02-11T19:16:19.654Z,35.78
2023-02-11T19:18:47.447Z,33.58
2023-02-11T19:21:15.168Z,28.30
2023-02-11T19:23:42.893Z,25.73
2023-02-11T19:26:10.675Z,29.25
2023-02-11T19:28:39.090Z,29.10
2023-02-11T19:31:09.794Z,28.02
2023-02-11T19:33:37.902Z,29.77
2023-02-11T19:36:07.726Z,29.58
2023-02-11T19:38:35.686Z,28.17
2023-02-11T19:41:03.601Z,36.35
2023-02-11T19:43:31.371Z,31.45
2023-02-11T19:46:00.688Z,28.17
2023-02-11T19:51:51.863Z,29.88
2023-02-11T19:54:20.194Z,27.77
2023-02-11T19:56:48.883Z,27.08
2023-02-11T19:59:25.746Z,28.25
2023-02-11T20:01:53.874Z,29.20
2023-02-11T20:04:32.117Z,28.17
2023-02-11T20:07:01.426Z,28.33
2023-02-11T20:09:31.294Z,27.65
2023-02-11T20:11:59.512Z,32.28
2023-02-11T20:14:28.163Z,39.30
2023-02-11T20:16:56.069Z,34.72
2023-02-11T20:19:23.882Z,39.05
2023-02-11T20:21:53.363Z,35.70
2023-02-11T20:24:23.501Z,38.58
2023-02-11T20:26:55.311Z,38.63
2023-02-11T20:29:23.693Z,37.07
2023-02-11T20:31:51.856Z,38.28
2023-02-11T20:34:21.041Z,37.60
2023-02-11T20:36:52.111Z,42.28
2023-02-11T20:39:21.744Z,36.35
2023-02-11T20:41:51.848Z,40.38
2023-02-11T20:44:21.594Z,37.03
2023-02-11T20:46:49.812Z,30.92
2023-02-11T20:49:19.119Z,30.88
2023-02-11T20:51:47.447Z,27.02
2023-02-11T20:54:17.201Z,28.95
2023-02-11T20:56:47.823Z,34.38
2023-02-11T20:59:18.228Z,31.40
2023-02-11T21:01:48.594Z,33.47
2023-02-11T21:04:18.011Z,34.58
2023-02-11T21:06:48.203Z,28.33
2023-02-11T21:09:19.585Z,33.13
2023-02-11T21:11:49.790Z,32.35
2023-02-11T21:14:19.336Z,34.92
2023-02-11T21:16:47.235Z,36.65
2023-02-11T21:19:15.316Z,33.75
2023-02-11T21:21:42.990Z,31.52
2023-02-11T21:24:11.603Z,45.42
2023-02-11T21:26:39.884Z,35.90
2023-02-11T21:29:09.168Z,38.53
2023-02-11T21:31:41.099Z,40.83
2023-02-11T21:34:08.910Z,36.40
2023-02-11T21:36:36.663Z,36.75
2023-02-11T21:39:05.886Z,34.88
2023-02-11T21:41:34.056Z,33.17
2023-02-11T21:44:02.316Z,34.15
2023-02-11T21:46:34.705Z,37.50
2023-02-11T21:49:05.116Z,36.50
2023-02-11T21:51:32.871Z,40.65
2023-02-11T21:54:02.413Z,40.70
2023-02-11T21:56:51.679Z,43.28
2023-02-11T21:59:29.411Z,40.72
2023-02-11T22:01:59.089Z,40.63
2023-02-11T22:04:28.341Z,40.78
2023-02-11T22:06:56.103Z,41.17
2023-02-11T22:09:23.853Z,42.38
2023-02-11T22:11:51.545Z,44.08
2023-02-11T22:14:19.245Z,42.40
2023-02-11T22:16:48.295Z,45.22
2023-02-11T22:19:16.259Z,41.40
2023-02-11T22:21:45.301Z,39.42
2023-02-11T22:24:13.029Z,39.22
2023-02-11T22:26:40.955Z,38.08
2023-02-11T22:29:08.974Z,29.35
2023-02-11T22:31:37.468Z,29.05
2023-02-11T22:34:05.989Z,30.33
2023-02-11T22:36:35.518Z,29.27
2023-02-11T22:39:07.015Z,37.65
2023-02-11T22:41:34.833Z,31.88
2023-02-11T22:44:02.716Z,28.52
2023-02-11T22:46:30.651Z,26.10
2023-02-11T22:48:58.421Z,26.58
2023-02-11T22:51:28.356Z,31.92
2023-02-11T22:53:59.330Z,28.85
2023-02-11T22:56:30.253Z,35.60
2023-02-11T22:58:59.002Z,32.53
2023-02-11T23:01:27.019Z,33.50
2023-02-11T23:03:54.892Z,28.05
2023-02-11T23:06:22.724Z,32.33
2023-02-11T23:08:50.416Z,99.10
2023-02-11T23:11:20.757Z,58.97
2023-02-11T23:13:52.306Z,46.78
2023-02-11T23:16:25.870Z,34.22
2023-02-11T23:18:54.426Z,37.55
2023-02-11T23:21:24.239Z,30.27
2023-02-11T23:23:56.065Z,29.00
2023-02-11T23:26:24.180Z,30.30
2023-02-11T23:28:53.734Z,29.30
2023-02-11T23:31:23.302Z,31.92
2023-02-11T23:33:51.158Z,36.22
2023-02-11T23:36:20.228Z,35.65
2023-02-11T23:38:48.236Z,34.83
2023-02-11T23:41:16.862Z,32.50
2023-02-11T23:43:45.144Z,38.03
2023-02-11T23:46:16.674Z,37.10
2023-02-11T23:48:44.433Z,39.67
2023-02-11T23:51:12.261Z,38.25
2023-02-11T23:53:41.021Z,33.83
2023-02-11T23:56:11.788Z,35.35
2023-02-11T23:58:39.466Z,33.65
